createdAt,value
2018-03-29T00:01:10.913Z,1.57
2018-03-29T00:03:38.401Z,2.23
2018-03-29T00:06:05.903Z,1.60
2018-03-29T00:08:33.373Z,2.00
2018-03-29T00:11:00.853Z,2.23
2018-03-29T00:13:29.089Z,2.20
2018-03-29T00:15:56.582Z,2.40
2018-03-29T00:18:24.092Z,2.10
2018-03-29T00:20:52.366Z,2.00
2018-03-29T00:23:19.830Z,2.67
2018-03-29T00:25:47.313Z,1.53
2018-03-29T00:28:14.794Z,2.50
2018-03-29T00:30:43.046Z,1.90
2018-03-29T00:33:10.506Z,1.70
2018-03-29T00:35:37.981Z,1.60
2018-03-29T00:38:05.452Z,1.60
2018-03-29T00:40:33.805Z,1.50
2018-03-29T00:43:01.290Z,1.30
2018-03-29T00:45:28.784Z,1.23
2018-03-29T00:47:56.272Z,1.90
2018-03-29T00:50:23.770Z,1.50
2018-03-29T00:52:51.237Z,1.37
2018-03-29T00:55:18.795Z,1.57
2018-03-29T00:57:46.250Z,1.00
2018-03-29T01:00:14.490Z,1.57
2018-03-29T01:02:41.967Z,1.20
2018-03-29T01:05:09.461Z,1.60
2018-03-29T01:07:36.966Z,1.70
2018-03-29T01:10:04.443Z,1.90
2018-03-29T01:12:31.922Z,1.83
2018-03-29T01:14:59.426Z,2.03
2018-03-29T01:17:26.893Z,2.73
2018-03-29T01:19:54.425Z,2.17
2018-03-29T01:22:21.893Z,1.97
2018-03-29T01:24:49.383Z,2.20
2018-03-29T01:27:16.879Z,2.17
2018-03-29T01:29:44.374Z,2.03
2018-03-29T01:32:11.850Z,1.90
2018-03-29T01:34:39.612Z,2.13
2018-03-29T01:37:07.180Z,2.60
2018-03-29T01:39:34.681Z,1.90
2018-03-29T01:42:02.150Z,2.20
2018-03-29T01:44:29.617Z,2.17
2018-03-29T01:46:57.074Z,2.13
2018-03-29T01:49:24.553Z,1.97
2018-03-29T01:51:52.041Z,1.73
2018-03-29T01:54:19.570Z,1.80
2018-03-29T01:56:47.052Z,2.43
2018-03-29T01:59:14.534Z,2.07
2018-03-29T02:01:42.010Z,1.93
2018-03-29T02:04:09.474Z,1.63
2018-03-29T02:06:36.979Z,2.00
2018-03-29T02:09:04.465Z,1.63
2018-03-29T02:11:31.946Z,2.00
2018-03-29T02:14:00.175Z,1.90
2018-03-29T02:16:27.734Z,1.67
2018-03-29T02:18:55.203Z,1.37
2018-03-29T02:21:22.694Z,1.60
2018-03-29T02:23:50.180Z,1.20
2018-03-29T02:26:18.533Z,1.60
2018-03-29T02:28:46.018Z,1.63
2018-03-29T02:31:13.518Z,1.30
2018-03-29T02:33:40.994Z,1.40
2018-03-29T02:36:08.490Z,1.70
2018-03-29T02:38:36.821Z,1.43
2018-03-29T02:41:04.329Z,1.60
2018-03-29T02:43:31.792Z,1.90
2018-03-29T02:45:59.286Z,1.70
2018-03-29T02:48:26.863Z,2.13
2018-03-29T02:50:54.358Z,1.77
2018-03-29T02:53:21.827Z,2.03
2018-03-29T02:55:50.137Z,2.80
2018-03-29T02:58:17.698Z,2.30
2018-03-29T03:00:45.210Z,2.13
2018-03-29T03:03:12.686Z,2.30
2018-03-29T03:05:40.200Z,1.60
2018-03-29T03:08:08.446Z,1.57
2018-03-29T03:10:35.956Z,1.60
2018-03-29T03:13:03.425Z,2.13
2018-03-29T03:15:31.688Z,1.70
2018-03-29T03:17:59.161Z,1.60
2018-03-29T03:20:26.675Z,1.97
2018-03-29T03:22:54.173Z,1.23
2018-03-29T03:25:21.725Z,1.20
2018-03-29T03:27:49.292Z,1.27
2018-03-29T03:30:16.842Z,1.40
2018-03-29T03:32:45.188Z,1.67
2018-03-29T03:35:12.680Z,1.37
2018-03-29T03:37:40.194Z,3.90
2018-03-29T03:40:07.738Z,1.60
2018-03-29T03:42:35.209Z,1.80
2018-03-29T03:45:02.711Z,1.87
2018-03-29T03:47:30.224Z,2.33
2018-03-29T03:49:57.696Z,4.43
2018-03-29T03:52:25.180Z,1.80
2018-03-29T03:54:52.645Z,2.10
2018-03-29T03:57:20.134Z,2.63
2018-03-29T03:59:47.604Z,1.93
2018-03-29T04:02:15.140Z,2.50
2018-03-29T04:04:42.609Z,3.73
2018-03-29T04:07:10.141Z,2.17
2018-03-29T04:09:38.397Z,2.10
2018-03-29T04:12:05.870Z,2.50
2018-03-29T04:14:33.329Z,2.17
2018-03-29T04:17:00.817Z,2.13
2018-03-29T04:19:28.289Z,2.40
2018-03-29T04:21:55.773Z,2.10
2018-03-29T04:24:24.005Z,3.07
2018-03-29T04:26:51.513Z,2.80
2018-03-29T04:29:18.989Z,3.30
2018-03-29T04:31:46.523Z,2.70
2018-03-29T04:34:14.080Z,3.23
2018-03-29T04:36:41.517Z,3.23
2018-03-29T04:39:09.008Z,2.60
2018-03-29T04:41:36.488Z,3.30
2018-03-29T04:44:03.994Z,3.17
2018-03-29T04:46:31.477Z,3.23
2018-03-29T04:48:59.757Z,2.90
2018-03-29T04:51:28.013Z,2.63
2018-03-29T04:53:55.484Z,2.67
2018-03-29T04:56:23.065Z,2.77
2018-03-29T04:58:50.540Z,3.33
2018-03-29T05:01:18.053Z,2.70
2018-03-29T05:03:45.538Z,2.73
2018-03-29T05:06:13.782Z,3.43
2018-03-29T05:08:41.255Z,2.97
2018-03-29T05:11:08.746Z,4.63
2018-03-29T05:13:36.214Z,3.57
2018-03-29T05:16:03.785Z,2.97
2018-03-29T05:18:31.242Z,3.40
2018-03-29T05:20:58.734Z,3.60
2018-03-29T05:23:26.197Z,4.27
2018-03-29T05:25:53.712Z,3.73
2018-03-29T05:28:22.010Z,3.77
2018-03-29T05:30:49.493Z,4.37
2018-03-29T05:33:16.966Z,4.13
2018-03-29T05:35:44.597Z,4.10
2018-03-29T05:38:13.130Z,3.80
2018-03-29T05:40:40.629Z,3.03
2018-03-29T05:43:08.114Z,3.00
2018-03-29T05:45:35.607Z,3.23
2018-03-29T05:48:03.144Z,2.93
2018-03-29T05:50:30.606Z,3.40
2018-03-29T05:52:58.976Z,3.60
2018-03-29T05:55:26.442Z,3.33
2018-03-29T05:57:54.862Z,3.63
2018-03-29T06:00:22.335Z,3.47
2018-03-29T06:02:49.868Z,3.47
2018-03-29T06:05:17.411Z,3.77
2018-03-29T06:07:44.929Z,4.00
2018-03-29T06:10:12.397Z,3.50
2018-03-29T06:12:39.893Z,3.97
2018-03-29T06:15:12.976Z,3.77
2018-03-29T06:17:41.364Z,3.73
2018-03-29T06:20:08.832Z,4.37
2018-03-29T06:22:36.330Z,4.40
2018-03-29T06:25:03.802Z,3.40
2018-03-29T06:27:31.290Z,3.60
2018-03-29T06:29:58.827Z,4.63
2018-03-29T06:32:26.310Z,3.83
2018-03-29T06:34:53.773Z,6.57
2018-03-29T06:37:21.265Z,4.13
2018-03-29T06:39:48.768Z,4.07
2018-03-29T06:42:16.237Z,3.67
2018-03-29T06:44:43.715Z,3.83
2018-03-29T06:47:11.955Z,5.50
2018-03-29T06:49:39.465Z,5.17
2018-03-29T06:52:06.933Z,4.07
2018-03-29T06:54:34.457Z,4.80
2018-03-29T06:57:01.942Z,4.20
2018-03-29T06:59:29.454Z,4.10
2018-03-29T07:01:56.927Z,5.40
2018-03-29T07:04:25.286Z,3.97
2018-03-29T07:06:53.546Z,2.93
2018-03-29T07:09:21.038Z,4.33
2018-03-29T07:11:48.530Z,4.73
2018-03-29T07:14:15.999Z,3.47
2018-03-29T07:16:43.485Z,4.47
2018-03-29T07:19:10.957Z,4.73
2018-03-29T07:21:38.453Z,6.13
2018-03-29T07:24:06.506Z,4.27
2018-03-29T07:26:33.982Z,4.57
2018-03-29T07:31:35.506Z,4.13
2018-03-29T07:34:02.972Z,4.60
2018-03-29T07:36:31.235Z,4.20
2018-03-29T07:38:58.702Z,5.97
2018-03-29T07:41:26.177Z,4.77
2018-03-29T07:43:53.653Z,4.60
2018-03-29T07:46:21.125Z,5.20
2018-03-29T07:48:49.405Z,4.73
2018-03-29T07:51:16.907Z,5.43
2018-03-29T07:53:44.397Z,5.10
2018-03-29T07:56:11.905Z,4.33
2018-03-29T07:58:39.377Z,5.10
2018-03-29T08:01:06.854Z,4.80
2018-03-29T08:03:34.329Z,5.60
2018-03-29T08:06:01.809Z,6.13
2018-03-29T08:08:29.277Z,5.47
2018-03-29T08:10:56.748Z,6.27
2018-03-29T08:13:24.244Z,6.93
2018-03-29T08:15:51.734Z,5.60
2018-03-29T08:18:19.207Z,7.03
2018-03-29T08:20:46.674Z,5.67
2018-03-29T08:23:14.173Z,6.00
2018-03-29T08:25:41.671Z,6.67
2018-03-29T08:28:09.157Z,5.93
2018-03-29T08:30:37.426Z,8.40
2018-03-29T08:33:04.918Z,6.03
2018-03-29T08:35:33.154Z,6.73
2018-03-29T08:38:00.634Z,6.13
2018-03-29T08:40:28.122Z,6.43
2018-03-29T08:42:55.605Z,5.47
2018-03-29T08:45:23.070Z,8.07
2018-03-29T08:47:50.553Z,7.10
2018-03-29T08:50:18.021Z,6.93
2018-03-29T08:52:45.541Z,6.43
2018-03-29T08:55:13.022Z,6.50
2018-03-29T08:57:40.509Z,6.80
2018-03-29T09:00:07.994Z,5.60
2018-03-29T09:02:35.480Z,5.67
2018-03-29T09:05:03.718Z,6.37
2018-03-29T09:07:31.256Z,6.37
2018-03-29T09:09:59.590Z,7.87
2018-03-29T09:12:27.091Z,7.47
2018-03-29T09:14:54.557Z,7.37
2018-03-29T09:17:22.039Z,9.43
2018-03-29T09:19:49.496Z,7.93
2018-03-29T09:22:16.982Z,8.73
2018-03-29T09:24:45.220Z,7.13
2018-03-29T09:27:12.701Z,7.07
2018-03-29T09:29:40.182Z,6.10
2018-03-29T09:32:07.773Z,6.67
2018-03-29T09:34:35.245Z,7.30
2018-03-29T09:37:02.725Z,7.53
2018-03-29T09:39:30.185Z,5.23
2018-03-29T09:41:57.723Z,4.30
2018-03-29T09:44:25.197Z,5.10
2018-03-29T09:46:52.710Z,4.20
2018-03-29T09:49:20.955Z,5.30
2018-03-29T09:51:48.498Z,4.30
2018-03-29T09:54:16.701Z,4.00
2018-03-29T09:56:44.267Z,3.47
2018-03-29T09:59:11.761Z,3.70
2018-03-29T10:01:39.281Z,3.23
2018-03-29T10:04:12.521Z,3.43
2018-03-29T10:06:51.896Z,3.20
2018-03-29T10:09:19.443Z,3.40
2018-03-29T10:11:46.965Z,2.93
2018-03-29T10:14:14.429Z,4.00
2018-03-29T10:16:41.913Z,3.93
2018-03-29T10:19:09.372Z,2.63
2018-03-29T10:21:36.859Z,2.93
2018-03-29T10:24:04.338Z,3.63
2018-03-29T10:26:31.825Z,3.30
2018-03-29T10:28:59.294Z,3.00
2018-03-29T10:31:26.778Z,2.93
2018-03-29T10:33:54.284Z,2.97
2018-03-29T10:36:21.769Z,3.10
2018-03-29T10:38:49.261Z,3.63
2018-03-29T10:41:17.499Z,3.17
2018-03-29T10:43:45.058Z,2.73
2018-03-29T10:46:12.518Z,2.20
2018-03-29T10:48:40.004Z,2.40
2018-03-29T10:51:07.482Z,2.00
2018-03-29T10:53:35.012Z,2.47
2018-03-29T10:56:03.281Z,3.50
2018-03-29T10:58:30.768Z,1.90
2018-03-29T11:00:58.995Z,1.93
2018-03-29T11:03:26.502Z,2.30
2018-03-29T11:05:54.085Z,2.57
2018-03-29T11:08:21.618Z,2.50
2018-03-29T11:10:49.096Z,2.33
2018-03-29T11:13:16.588Z,2.20
2018-03-29T11:15:44.047Z,1.87
2018-03-29T11:18:11.585Z,2.27
2018-03-29T11:20:39.049Z,2.23
2018-03-29T11:23:06.534Z,2.40
2018-03-29T11:25:34.009Z,2.53
2018-03-29T11:28:01.514Z,2.50
2018-03-29T11:30:28.978Z,2.63
2018-03-29T11:32:56.455Z,3.27
2018-03-29T11:35:23.921Z,2.97
2018-03-29T11:37:51.413Z,2.03
2018-03-29T11:40:18.981Z,1.97
2018-03-29T11:42:46.461Z,2.67
2018-03-29T11:45:14.701Z,2.80
2018-03-29T11:47:42.182Z,2.03
2018-03-29T11:50:10.472Z,2.33
2018-03-29T11:52:37.946Z,2.67
2018-03-29T11:55:06.217Z,2.23
2018-03-29T11:57:33.701Z,2.20
2018-03-29T12:00:01.165Z,2.23
2018-03-29T12:02:28.641Z,1.80
2018-03-29T12:04:56.127Z,1.90
2018-03-29T12:07:23.647Z,1.50
2018-03-29T12:09:51.884Z,1.73
2018-03-29T12:12:19.373Z,1.80
2018-03-29T12:14:46.851Z,1.20
2018-03-29T12:17:14.330Z,1.40
2018-03-29T12:19:42.559Z,1.90
2018-03-29T12:22:10.042Z,1.70
2018-03-29T12:24:37.512Z,1.50
2018-03-29T12:27:04.992Z,1.03
2018-03-29T12:29:32.522Z,1.03
2018-03-29T12:32:00.779Z,1.53
2018-03-29T12:34:28.253Z,1.57
2018-03-29T12:36:55.720Z,1.30
2018-03-29T12:39:23.215Z,1.17
2018-03-29T12:41:51.448Z,1.57
2018-03-29T12:44:18.936Z,1.33
2018-03-29T12:46:46.410Z,2.07
2018-03-29T12:49:13.888Z,1.60
2018-03-29T12:51:41.366Z,1.43
2018-03-29T12:54:08.845Z,1.03
2018-03-29T12:56:48.178Z,1.80
2018-03-29T12:59:15.729Z,2.70
2018-03-29T13:01:43.238Z,1.30
2018-03-29T13:04:10.733Z,2.07
2018-03-29T13:06:38.967Z,1.80
2018-03-29T13:09:06.458Z,1.33
2018-03-29T13:11:33.962Z,1.40
2018-03-29T13:14:01.460Z,1.60
2018-03-29T13:16:28.977Z,2.37
2018-03-29T13:18:56.482Z,1.20
2018-03-29T13:21:24.057Z,1.50
2018-03-29T13:23:51.585Z,1.70
2018-03-29T13:26:19.047Z,1.80
2018-03-29T13:28:46.550Z,1.90
2018-03-29T13:31:14.026Z,2.20
2018-03-29T13:33:42.319Z,1.90
2018-03-29T13:36:10.553Z,1.63
2018-03-29T13:38:38.058Z,1.90
2018-03-29T13:41:05.533Z,2.10
2018-03-29T13:43:33.809Z,1.83
2018-03-29T13:46:01.302Z,1.13
2018-03-29T13:48:29.562Z,1.53
2018-03-29T13:50:57.027Z,1.60
2018-03-29T13:53:25.314Z,1.73
2018-03-29T13:55:52.793Z,1.50
2018-03-29T13:58:20.318Z,1.17
2018-03-29T14:00:47.794Z,0.83
2018-03-29T14:03:16.157Z,1.10
2018-03-29T14:05:44.401Z,1.40
2018-03-29T14:08:11.933Z,0.90
2018-03-29T14:10:39.425Z,1.00
2018-03-29T14:13:06.909Z,3.30
2018-03-29T14:15:34.380Z,1.40
2018-03-29T14:18:01.945Z,0.90
2018-03-29T14:20:29.410Z,1.10
2018-03-29T14:22:56.889Z,0.97
2018-03-29T14:25:24.357Z,1.60
2018-03-29T14:27:51.837Z,1.30
2018-03-29T14:30:19.367Z,0.80
2018-03-29T14:32:47.718Z,1.37
2018-03-29T14:35:15.179Z,0.90
2018-03-29T14:37:42.676Z,1.50
2018-03-29T14:40:10.136Z,1.13
2018-03-29T14:42:38.453Z,2.93
2018-03-29T14:45:05.976Z,1.33
2018-03-29T14:47:33.453Z,1.30
2018-03-29T14:50:01.047Z,1.40
2018-03-29T14:52:28.519Z,1.60
2018-03-29T14:54:56.073Z,1.80
2018-03-29T14:57:23.537Z,1.23
2018-03-29T14:59:51.022Z,1.53
2018-03-29T15:02:18.625Z,1.60
2018-03-29T15:04:46.138Z,1.23
2018-03-29T15:07:13.645Z,1.03
2018-03-29T15:09:41.188Z,1.83
2018-03-29T15:12:08.662Z,1.40
2018-03-29T15:14:36.149Z,1.37
2018-03-29T15:17:03.658Z,2.83
2018-03-29T15:19:31.189Z,1.50
2018-03-29T15:21:58.670Z,1.20
2018-03-29T15:24:26.167Z,1.37
2018-03-29T15:26:54.477Z,2.90
2018-03-29T15:29:22.945Z,1.13
2018-03-29T15:31:50.402Z,0.87
2018-03-29T15:34:17.938Z,0.70
2018-03-29T15:36:45.589Z,1.00
2018-03-29T15:39:13.089Z,1.13
2018-03-29T15:41:40.553Z,1.30
2018-03-29T15:44:08.034Z,0.93
2018-03-29T15:46:35.533Z,0.90
2018-03-29T15:49:03.096Z,2.57
2018-03-29T15:51:30.569Z,1.00
2018-03-29T15:53:58.060Z,1.03
2018-03-29T15:56:25.539Z,1.23
2018-03-29T15:58:53.801Z,0.93
2018-03-29T16:01:21.298Z,1.00
2018-03-29T16:03:49.543Z,1.30
2018-03-29T16:06:17.091Z,0.80
2018-03-29T16:08:44.585Z,0.70
2018-03-29T16:11:13.073Z,2.73
2018-03-29T16:13:40.601Z,1.10
2018-03-29T16:16:08.840Z,1.50
2018-03-29T16:18:36.317Z,0.80
2018-03-29T16:21:03.791Z,0.80
2018-03-29T16:23:31.289Z,1.33
2018-03-29T16:25:58.754Z,0.90
2018-03-29T16:28:26.261Z,1.43
2018-03-29T16:30:53.793Z,1.50
2018-03-29T16:33:21.282Z,0.97
2018-03-29T16:35:49.541Z,1.40
2018-03-29T16:38:17.038Z,1.27
2018-03-29T16:40:44.523Z,1.20
2018-03-29T16:43:12.778Z,0.90
2018-03-29T16:45:40.254Z,1.93
2018-03-29T16:48:07.723Z,1.10
2018-03-29T16:50:35.283Z,0.90
2018-03-29T16:53:02.766Z,3.50
2018-03-29T16:55:30.260Z,1.90
2018-03-29T16:57:58.489Z,2.40
2018-03-29T17:00:25.968Z,0.80
2018-03-29T17:02:53.431Z,1.07
2018-03-29T17:05:20.922Z,1.87
2018-03-29T17:07:48.410Z,1.10
2018-03-29T17:10:15.902Z,1.63
2018-03-29T17:12:44.200Z,1.20
2018-03-29T17:15:12.475Z,0.80
2018-03-29T17:17:40.014Z,1.10
2018-03-29T17:20:07.552Z,1.77
2018-03-29T17:22:35.018Z,0.77
2018-03-29T17:25:02.553Z,1.23
2018-03-29T17:27:32.144Z,0.87
2018-03-29T17:29:59.753Z,0.90
2018-03-29T17:32:27.250Z,1.40
2018-03-29T17:34:55.588Z,1.00
2018-03-29T17:37:23.156Z,1.10
2018-03-29T17:39:50.929Z,2.07
2018-03-29T17:42:18.413Z,1.03
2018-03-29T17:44:45.955Z,3.23
2018-03-29T17:47:13.687Z,2.33
2018-03-29T17:49:42.062Z,4.07
2018-03-29T17:52:09.793Z,0.90
2018-03-29T17:54:37.395Z,1.57
2018-03-29T17:57:04.914Z,0.97
2018-03-29T17:59:32.443Z,1.63
2018-03-29T18:01:59.957Z,1.13
2018-03-29T18:04:27.737Z,1.67
2018-03-29T18:06:56.075Z,1.27
2018-03-29T18:09:23.720Z,1.27
2018-03-29T18:11:52.618Z,1.73
2018-03-29T18:14:20.285Z,1.00
2018-03-29T18:16:47.901Z,0.90
2018-03-29T18:19:16.610Z,3.13
2018-03-29T18:21:45.038Z,1.30
2018-03-29T18:24:13.362Z,1.17
2018-03-29T18:26:44.365Z,2.57
2018-03-29T18:29:11.970Z,1.13
2018-03-29T18:31:39.587Z,1.53
2018-03-29T18:34:07.196Z,1.57
2018-03-29T18:36:35.611Z,1.23
2018-03-29T18:39:03.434Z,1.30
2018-03-29T18:41:31.583Z,2.53
2018-03-29T18:43:59.933Z,2.10
2018-03-29T18:46:27.628Z,1.33
2018-03-29T18:48:55.205Z,1.30
2018-03-29T18:51:23.601Z,0.93
2018-03-29T18:53:51.947Z,1.27
2018-03-29T18:56:21.547Z,1.23
2018-03-29T18:58:49.150Z,1.57
2018-03-29T19:01:16.630Z,2.07
2018-03-29T19:03:44.895Z,1.17
2018-03-29T19:06:13.278Z,1.40
2018-03-29T19:08:40.796Z,0.93
2018-03-29T19:11:08.957Z,1.10
2018-03-29T19:13:36.712Z,2.93
2018-03-29T19:16:04.262Z,4.10
2018-03-29T19:18:31.751Z,4.63
2018-03-29T19:20:59.242Z,5.90
2018-03-29T19:23:27.478Z,5.00
2018-03-29T19:25:55.813Z,2.97
2018-03-29T19:28:23.281Z,2.20
2018-03-29T19:30:50.787Z,3.63
2018-03-29T19:33:18.302Z,3.27
2018-03-29T19:35:45.815Z,2.13
2018-03-29T19:38:13.280Z,1.90
2018-03-29T19:40:40.814Z,2.53
2018-03-29T19:43:09.070Z,1.60
2018-03-29T19:45:36.639Z,2.17
2018-03-29T19:48:04.157Z,4.17
2018-03-29T19:50:31.659Z,6.17
2018-03-29T19:52:59.133Z,4.27
2018-03-29T19:55:26.666Z,3.47
2018-03-29T19:57:54.134Z,2.07
2018-03-29T20:00:21.683Z,2.10
2018-03-29T20:02:49.909Z,1.07
2018-03-29T20:05:19.328Z,1.37
2018-03-29T20:07:46.805Z,2.77
2018-03-29T20:10:14.912Z,1.00
2018-03-29T20:12:42.535Z,1.80
2018-03-29T20:15:10.001Z,2.90
2018-03-29T20:17:37.658Z,1.20
2018-03-29T20:20:05.439Z,1.43
2018-03-29T20:22:33.744Z,1.63
2018-03-29T20:25:02.185Z,0.87
2018-03-29T20:27:30.667Z,2.07
2018-03-29T20:32:21.364Z,1.33
2018-03-29T20:34:49.198Z,1.57
2018-03-29T20:37:16.710Z,1.10
2018-03-29T20:39:44.198Z,1.60
2018-03-29T20:42:12.478Z,1.50
2018-03-29T20:44:40.720Z,1.80
2018-03-29T20:47:08.211Z,1.50
2018-03-29T20:49:35.912Z,0.90
2018-03-29T20:52:03.509Z,1.43
2018-03-29T20:54:31.078Z,1.20
2018-03-29T20:56:58.566Z,2.50
2018-03-29T20:59:26.032Z,0.90
2018-03-29T21:01:53.581Z,1.80
2018-03-29T21:04:21.110Z,1.23
2018-03-29T21:06:48.653Z,2.27
2018-03-29T21:09:16.302Z,1.10
2018-03-29T21:11:43.751Z,1.43
2018-03-29T21:14:11.303Z,2.03
2018-03-29T21:16:38.769Z,2.80
2018-03-29T21:19:06.251Z,1.20
2018-03-29T21:21:34.643Z,1.30
2018-03-29T21:24:02.316Z,0.90
2018-03-29T21:26:29.821Z,0.87
2018-03-29T21:28:58.150Z,0.97
2018-03-29T21:31:25.629Z,3.70
2018-03-29T21:33:53.166Z,1.80
2018-03-29T21:36:21.482Z,1.00
2018-03-29T21:38:48.978Z,1.83
2018-03-29T21:41:16.445Z,1.23
2018-03-29T21:43:43.943Z,0.97
2018-03-29T21:46:11.406Z,0.93
2018-03-29T21:48:38.898Z,1.43
2018-03-29T21:51:06.371Z,1.73
2018-03-29T21:53:34.614Z,1.43
2018-03-29T21:56:02.154Z,1.67
2018-03-29T21:58:29.630Z,2.03
2018-03-29T22:00:57.122Z,1.37
2018-03-29T22:03:24.586Z,1.20
2018-03-29T22:05:52.073Z,1.17
2018-03-29T22:08:19.557Z,1.30
2018-03-29T22:10:47.050Z,1.50
2018-03-29T22:13:15.360Z,1.20
2018-03-29T22:15:43.601Z,1.63
2018-03-29T22:18:11.067Z,0.60
2018-03-29T22:20:38.552Z,1.73
2018-03-29T22:23:06.040Z,1.10
2018-03-29T22:25:33.914Z,1.20
2018-03-29T22:28:02.198Z,1.27
2018-03-29T22:30:29.914Z,1.60
2018-03-29T22:32:57.376Z,1.83
2018-03-29T22:35:25.625Z,3.00
2018-03-29T22:37:53.131Z,1.77
2018-03-29T22:40:20.636Z,4.30
2018-03-29T22:42:48.240Z,1.80
2018-03-29T22:45:15.828Z,2.50
2018-03-29T22:47:44.122Z,3.00
2018-03-29T22:50:12.405Z,2.03
2018-03-29T22:52:40.648Z,1.53
2018-03-29T22:55:08.129Z,1.33
2018-03-29T22:57:35.634Z,2.43
2018-03-29T23:00:03.100Z,1.10
2018-03-29T23:02:30.581Z,1.30
2018-03-29T23:04:58.125Z,1.20
2018-03-29T23:07:25.635Z,0.80
2018-03-29T23:09:53.333Z,1.03
2018-03-29T23:12:22.812Z,3.57
2018-03-29T23:14:50.342Z,0.93
2018-03-29T23:17:17.900Z,1.00
2018-03-29T23:19:45.383Z,1.23
2018-03-29T23:22:12.960Z,1.50
2018-03-29T23:24:40.440Z,1.37
2018-03-29T23:27:07.920Z,1.40
2018-03-29T23:29:35.397Z,1.87
2018-03-29T23:32:03.703Z,1.03
2018-03-29T23:34:31.178Z,1.80
2018-03-29T23:36:58.674Z,2.00
2018-03-29T23:39:26.897Z,4.77
2018-03-29T23:41:54.440Z,1.50
2018-03-29T23:44:22.131Z,1.73
2018-03-29T23:46:49.683Z,1.57
2018-03-29T23:49:17.917Z,1.10
2018-03-29T23:51:45.389Z,1.53
2018-03-29T23:54:12.870Z,1.07
2018-03-29T23:56:40.326Z,1.00
2018-03-29T23:59:07.817Z,1.20
